Time;durP1;ratioP1;P1;durP2;ratioP2;P2;SDS_P1;SDS_P2;PMS_P1;PMS_P2;Temp;Humidity;BMP_temperature;BMP_pressure;BME280_temperature;BME280_humidity;BME280_pressure;Samples;Min_cycle;Max_cycle;Signal;HPM_P1;HPM_P2
2023/07/27 00:01:46;;;;;;;4.93;3.72;;;21.30;99.90;;;;;;5042924;28;20630;-25
2023/07/27 00:04:14;;;;;;;5.80;4.00;;;21.30;99.90;;;;;;5042999;28;20249;-26
2023/07/27 00:06:41;;;;;;;5.22;3.70;;;21.30;99.90;;;;;;5043908;28;20223;-25
2023/07/27 00:09:12;;;;;;;5.53;3.97;;;21.30;99.90;;;;;;5043063;28;20236;-26
2023/07/27 00:11:39;;;;;;;5.72;4.30;;;21.20;99.90;;;;;;5044051;28;20204;-25
2023/07/27 00:14:07;;;;;;;5.80;4.13;;;21.20;99.90;;;;;;5043085;28;20199;-25
2023/07/27 00:16:34;;;;;;;6.65;4.03;;;21.10;99.90;;;;;;5043492;28;20717;-25
2023/07/27 00:19:08;;;;;;;8.43;4.18;;;21.10;99.90;;;;;;5043671;28;20196;-26
2023/07/27 00:21:38;;;;;;;5.15;3.92;;;21.10;99.90;;;;;;5042634;28;20219;-25
2023/07/27 00:24:10;;;;;;;7.03;4.22;;;21.10;99.90;;;;;;5042775;28;20698;-25
2023/07/27 00:26:37;;;;;;;5.32;4.07;;;21.10;99.90;;;;;;5042791;28;20646;-25
2023/07/27 00:29:04;;;;;;;6.10;4.40;;;21.00;99.90;;;;;;5043064;28;20947;-25
2023/07/27 00:31:31;;;;;;;7.25;4.30;;;21.00;99.90;;;;;;5043327;28;20211;-25
2023/07/27 00:33:58;;;;;;;5.53;4.15;;;21.00;99.90;;;;;;5044717;28;20287;-25
2023/07/27 00:36:28;;;;;;;5.40;3.95;;;21.00;99.90;;;;;;5043363;28;20219;-25
2023/07/27 00:38:55;;;;;;;5.78;4.38;;;21.00;99.90;;;;;;5042715;28;20290;-25
2023/07/27 00:41:23;;;;;;;5.60;4.22;;;20.90;99.90;;;;;;5040661;28;20617;-26
2023/07/27 00:43:50;;;;;;;7.10;5.05;;;20.90;99.90;;;;;;5026547;28;20201;-26
2023/07/27 00:46:19;;;;;;;5.80;4.50;;;20.90;99.90;;;;;;5028316;28;20197;-25
2023/07/27 00:48:52;;;;;;;5.43;3.97;;;20.90;99.90;;;;;;5028465;28;20235;-26
2023/07/27 00:51:22;;;;;;;5.50;4.10;;;20.80;99.90;;;;;;5025916;28;20656;-25
2023/07/27 00:53:56;;;;;;;6.85;4.28;;;20.80;99.90;;;;;;5028182;28;20205;-26
2023/07/27 00:56:26;;;;;;;4.63;4.07;;;20.80;99.90;;;;;;5026760;28;20580;-25
2023/07/27 00:58:57;;;;;;;6.18;4.32;;;20.80;99.90;;;;;;5026614;28;20220;-26
2023/07/27 01:01:27;;;;;;;6.93;4.28;;;20.80;99.90;;;;;;5026237;28;20738;-26
2023/07/27 01:03:58;;;;;;;5.55;3.63;;;20.70;99.90;;;;;;5032372;28;20538;-26
2023/07/27 01:06:25;;;;;;;5.35;3.88;;;20.70;99.90;;;;;;5036295;28;20204;-25
2023/07/27 01:08:56;;;;;;;5.35;3.55;;;20.70;99.90;;;;;;5036956;28;20705;-25
2023/07/27 01:11:55;;;;;;;5.68;4.05;;;20.70;99.90;;;;;;5046129;28;20297;-25
2023/07/27 01:14:25;;;;;;;4.22;3.40;;;20.70;99.90;;;;;;5046089;28;20208;-25
2023/07/27 01:17:09;;;;;;;5.35;3.40;;;20.60;99.90;;;;;;5031809;28;20258;-26
2023/07/27 01:20:16;;;;;;;5.63;3.15;;;20.60;99.90;;;;;;5047418;28;20235;-25
2023/07/27 01:23:03;;;;;;;3.97;2.88;;;20.60;99.90;;;;;;5045540;28;20219;-26
2023/07/27 01:26:04;;;;;;;3.63;2.75;;;20.50;99.90;;;;;;5027943;28;20208;-26
2023/07/27 01:28:56;;;;;;;6.53;2.92;;;20.50;99.90;;;;;;5045710;28;20751;-25
2023/07/27 01:31:31;;;;;;;4.18;2.97;;;20.50;99.90;;;;;;5045352;28;20258;-31
2023/07/27 01:34:03;;;;;;;6.18;3.20;;;20.50;99.90;;;;;;5046410;28;20195;-31
2023/07/27 01:36:40;;;;;;;6.68;3.53;;;20.40;99.90;;;;;;5044697;28;20435;-31
2023/07/27 01:39:10;;;;;;;5.30;3.10;;;20.40;99.90;;;;;;5045128;28;20791;-31
2023/07/27 01:41:41;;;;;;;5.40;3.47;;;20.40;99.90;;;;;;5041622;28;20213;-31
2023/07/27 01:44:10;;;;;;;5.05;3.15;;;20.40;99.90;;;;;;5027043;28;20315;-31
2023/07/27 01:46:47;;;;;;;4.93;3.13;;;20.40;99.90;;;;;;5025398;28;20278;-31
2023/07/27 01:49:16;;;;;;;2.90;2.60;;;20.40;99.90;;;;;;5025284;28;20217;-31
2023/07/27 01:51:52;;;;;;;5.00;3.38;;;20.30;99.90;;;;;;5024208;28;20308;-31
2023/07/27 01:54:19;;;;;;;4.60;2.90;;;20.30;99.90;;;;;;5026572;28;20202;-25
2023/07/27 01:56:54;;;;;;;5.00;2.88;;;20.30;99.90;;;;;;5027424;28;20220;-25
2023/07/27 01:59:22;;;;;;;3.83;2.92;;;20.30;99.90;;;;;;5026865;28;20204;-25
2023/07/27 02:01:50;;;;;;;4.72;2.90;;;20.30;99.90;;;;;;5024978;28;20209;-25
2023/07/27 02:04:17;;;;;;;4.90;2.85;;;20.30;99.90;;;;;;5026908;28;20262;-25
2023/07/27 02:06:51;;;;;;;4.03;2.80;;;20.20;99.90;;;;;;5026324;28;20209;-25
2023/07/27 02:09:18;;;;;;;3.88;2.35;;;20.20;99.90;;;;;;5027232;28;20242;-25
2023/07/27 02:11:58;;;;;;;4.88;2.65;;;20.20;99.90;;;;;;5024997;28;20209;-25
2023/07/27 02:14:56;;;;;;;3.05;2.25;;;20.20;99.90;;;;;;5025539;28;20705;-25
2023/07/27 02:18:04;;;;;;;3.83;2.40;;;20.20;99.90;;;;;;5025058;28;20827;-25
2023/07/27 02:20:36;;;;;;;2.88;2.42;;;20.20;99.90;;;;;;5026189;28;20200;-25
2023/07/27 02:23:10;;;;;;;3.25;2.30;;;20.10;99.90;;;;;;5025620;28;20279;-25
2023/07/27 02:25:37;;;;;;;3.67;2.20;;;20.10;99.90;;;;;;5024902;28;20205;-25
2023/07/27 02:28:05;;;;;;;4.97;2.50;;;20.10;99.90;;;;;;5024669;28;20679;-24
2023/07/27 02:30:32;;;;;;;4.00;2.63;;;20.10;99.90;;;;;;5026603;28;20291;-25
2023/07/27 02:32:59;;;;;;;5.18;3.47;;;20.10;99.90;;;;;;5024722;28;20189;-25
2023/07/27 02:35:26;;;;;;;5.90;4.70;;;20.10;99.90;;;;;;5024437;28;20201;-25
2023/07/27 02:37:56;;;;;;;8.38;5.15;;;20.10;99.90;;;;;;5024970;28;20778;-25
2023/07/27 02:40:26;;;;;;;6.28;5.57;;;20.10;99.90;;;;;;5026234;28;20228;-25
2023/07/27 02:42:53;;;;;;;7.40;5.30;;;20.10;99.90;;;;;;5026310;28;20287;-25
2023/07/27 02:45:20;;;;;;;6.13;4.82;;;20.00;99.90;;;;;;5026824;28;20209;-25
2023/07/27 02:47:53;;;;;;;5.32;4.25;;;20.10;99.90;;;;;;5028801;28;20281;-25
2023/07/27 02:50:23;;;;;;;6.82;4.65;;;20.00;99.90;;;;;;5045874;28;20228;-25
2023/07/27 02:52:52;;;;;;;5.20;4.20;;;20.00;99.90;;;;;;5043480;28;20196;-31
2023/07/27 02:55:21;;;;;;;3.85;3.53;;;20.00;99.90;;;;;;5044374;28;21255;-31
2023/07/27 02:57:51;;;;;;;4.53;3.15;;;19.90;99.90;;;;;;5045554;28;20670;-31
2023/07/27 03:00:20;;;;;;;5.72;2.92;;;19.90;99.90;;;;;;5043948;28;20729;-30
2023/07/27 03:02:48;;;;;;;3.50;2.60;;;19.90;99.90;;;;;;5045427;28;20213;-30
2023/07/27 03:05:17;;;;;;;4.65;2.63;;;19.90;99.90;;;;;;5035791;28;20239;-30
2023/07/27 03:07:44;;;;;;;2.80;2.17;;;19.90;99.90;;;;;;5022963;28;20247;-31
2023/07/27 03:10:14;;;;;;;3.38;2.20;;;19.90;99.90;;;;;;5025382;28;20236;-30
2023/07/27 03:12:46;;;;;;;5.53;2.78;;;19.90;99.90;;;;;;5023804;28;20209;-31
2023/07/27 03:15:15;;;;;;;2.83;2.05;;;19.80;99.90;;;;;;5025631;28;20461;-31
2023/07/27 03:17:46;;;;;;;4.15;2.53;;;19.80;99.90;;;;;;5024026;28;20220;-31
2023/07/27 03:20:14;;;;;;;3.50;2.17;;;19.80;99.90;;;;;;5025975;28;20657;-31
2023/07/27 03:22:43;;;;;;;4.35;2.10;;;19.80;99.90;;;;;;5025705;28;20274;-31
2023/07/27 03:25:10;;;;;;;2.20;2.00;;;19.80;99.90;;;;;;5024965;28;20255;-31
2023/07/27 03:27:38;;;;;;;2.90;1.92;;;19.80;99.90;;;;;;5025364;28;20205;-31
2023/07/27 03:30:05;;;;;;;3.10;1.75;;;19.80;99.90;;;;;;5025179;28;20390;-31
2023/07/27 03:32:37;;;;;;;2.35;1.75;;;19.80;99.90;;;;;;5023485;28;20197;-31
2023/07/27 03:35:05;;;;;;;1.98;1.77;;;19.80;99.90;;;;;;5025236;28;20303;-31
2023/07/27 03:37:32;;;;;;;2.97;1.92;;;19.70;99.90;;;;;;5024630;28;20584;-31
2023/07/27 03:40:02;;;;;;;1.77;1.67;;;19.70;99.90;;;;;;5023743;28;20245;-31
2023/07/27 03:42:32;;;;;;;3.35;1.85;;;19.70;99.90;;;;;;5024791;28;20224;-32
2023/07/27 03:44:59;;;;;;;3.88;1.95;;;19.70;99.90;;;;;;5023709;28;20208;-31
2023/07/27 03:47:26;;;;;;;4.35;2.00;;;19.70;99.90;;;;;;5024820;28;20216;-31
2023/07/27 03:49:56;;;;;;;2.53;1.73;;;19.70;99.90;;;;;;5024780;28;20224;-31
2023/07/27 03:52:23;;;;;;;1.75;1.60;;;19.70;99.90;;;;;;5023903;28;20674;-31
2023/07/27 03:54:52;;;;;;;3.92;1.95;;;19.70;99.90;;;;;;5023675;28;20214;-31
2023/07/27 03:57:20;;;;;;;2.63;1.73;;;19.70;99.90;;;;;;5040357;28;20684;-31
2023/07/27 03:59:49;;;;;;;4.70;2.15;;;19.70;99.90;;;;;;5044713;28;20192;-31
2023/07/27 04:02:19;;;;;;;2.70;1.90;;;19.70;99.90;;;;;;5043097;28;20204;-31
2023/07/27 04:04:47;;;;;;;1.30;1.20;;;19.70;99.90;;;;;;5044642;28;20216;-32
2023/07/27 04:07:20;;;;;;;1.75;1.60;;;19.70;99.90;;;;;;5042050;28;20283;-32
2023/07/27 04:09:49;;;;;;;2.08;1.50;;;19.70;99.90;;;;;;5043328;28;20728;-32
2023/07/27 04:12:19;;;;;;;2.15;1.75;;;19.70;99.90;;;;;;5044649;28;20216;-32
2023/07/27 04:14:46;;;;;;;3.13;1.60;;;19.70;99.90;;;;;;5043588;28;20228;-31
2023/07/27 04:17:13;;;;;;;2.78;1.90;;;19.70;99.90;;;;;;5045429;28;20740;-32
2023/07/27 04:19:43;;;;;;;2.53;1.35;;;19.80;99.90;;;;;;5047107;28;20306;-31
2023/07/27 04:22:12;;;;;;;2.47;1.80;;;19.80;99.90;;;;;;5047543;28;20508;-31
2023/07/27 04:24:44;;;;;;;6.65;2.17;;;19.70;99.90;;;;;;5047039;28;20262;-31
2023/07/27 04:27:12;;;;;;;2.55;1.63;;;19.80;99.90;;;;;;5048402;28;20196;-31
2023/07/27 04:29:39;;;;;;;2.25;1.40;;;19.80;99.90;;;;;;5047918;28;20228;-31
2023/07/27 04:32:07;;;;;;;1.73;1.40;;;19.80;99.90;;;;;;5046539;28;20200;-31
2023/07/27 04:34:36;;;;;;;1.98;1.42;;;19.80;99.90;;;;;;5048927;28;20598;-31
2023/07/27 04:37:06;;;;;;;1.63;1.42;;;19.80;99.90;;;;;;5046391;28;20840;-31
2023/07/27 04:39:33;;;;;;;3.15;1.52;;;19.80;99.90;;;;;;5046729;28;20587;-31
2023/07/27 04:42:00;;;;;;;1.83;1.63;;;19.80;99.90;;;;;;5040688;28;20553;-31
2023/07/27 04:44:27;;;;;;;2.33;1.70;;;19.80;99.90;;;;;;5028058;28;20208;-34
2023/07/27 04:46:58;;;;;;;2.35;1.52;;;19.90;99.90;;;;;;5028284;28;20213;-31
2023/07/27 04:49:27;;;;;;;2.30;1.45;;;19.90;99.90;;;;;;5028052;28;20744;-31
2023/07/27 04:51:54;;;;;;;2.63;1.92;;;19.90;99.90;;;;;;5025785;28;20218;-31
2023/07/27 04:54:22;;;;;;;1.70;1.60;;;19.90;99.90;;;;;;5030534;28;20201;-31
2023/07/27 04:56:49;;;;;;;2.88;1.70;;;19.90;99.90;;;;;;5041173;28;20261;-31
2023/07/27 04:59:17;;;;;;;1.67;1.58;;;19.90;99.90;;;;;;5032749;28;20212;-31
2023/07/27 05:01:44;;;;;;;1.98;1.65;;;19.90;99.90;;;;;;5035179;28;20574;-31
2023/07/27 05:04:11;;;;;;;1.92;1.30;;;19.90;99.90;;;;;;5034663;28;20255;-31
2023/07/27 05:06:41;;;;;;;2.05;1.52;;;19.90;99.90;;;;;;5029948;28;20670;-31
2023/07/27 05:09:08;;;;;;;2.58;1.80;;;19.90;99.90;;;;;;5036903;28;20221;-31
2023/07/27 05:11:39;;;;;;;1.70;1.40;;;20.00;99.90;;;;;;5033719;28;20212;-31
2023/07/27 05:14:06;;;;;;;1.83;1.52;;;20.00;99.90;;;;;;5031013;28;20240;-31
2023/07/27 05:16:33;;;;;;;2.45;1.60;;;20.00;99.90;;;;;;5031835;28;20201;-31
2023/07/27 05:19:03;;;;;;;1.70;1.20;;;20.00;99.90;;;;;;5034537;28;20232;-31
2023/07/27 05:21:31;;;;;;;1.88;1.70;;;20.00;99.90;;;;;;5030811;28;20734;-31
2023/07/27 05:23:58;;;;;;;2.08;1.60;;;20.00;99.90;;;;;;5036486;28;20703;-31
2023/07/27 05:26:25;;;;;;;2.30;1.50;;;20.10;99.90;;;;;;5034777;28;20455;-31
2023/07/27 05:28:54;;;;;;;1.40;1.30;;;20.10;99.90;;;;;;5030144;28;20208;-31
2023/07/27 05:31:29;;;;;;;1.70;1.60;;;20.10;99.90;;;;;;5035589;28;20213;-31
2023/07/27 05:33:59;;;;;;;2.70;2.00;;;20.10;99.90;;;;;;5010053;28;20217;-31
2023/07/27 05:36:26;;;;;;;1.90;1.70;;;20.20;99.90;;;;;;5044750;28;20597;-31
2023/07/27 05:38:56;;;;;;;2.63;1.60;;;20.10;99.90;;;;;;5033025;28;20240;-31
2023/07/27 05:41:24;;;;;;;3.63;1.65;;;20.20;99.90;;;;;;5028005;28;20266;-31
2023/07/27 05:43:51;;;;;;;2.85;1.98;;;20.20;99.90;;;;;;5046754;28;20204;-31
2023/07/27 05:46:18;;;;;;;2.63;2.10;;;20.20;99.90;;;;;;5041588;28;20605;-31
2023/07/27 05:48:46;;;;;;;1.98;1.60;;;20.20;99.90;;;;;;5026142;28;20213;-30
2023/07/27 05:51:13;;;;;;;2.50;1.67;;;20.30;99.90;;;;;;5024813;28;20872;-31
2023/07/27 05:53:40;;;;;;;3.22;1.60;;;20.30;99.90;;;;;;5027171;28;20211;-31
2023/07/27 05:56:07;;;;;;;2.65;1.80;;;20.30;99.90;;;;;;5030345;28;20197;-31
2023/07/27 05:58:35;;;;;;;2.05;1.70;;;20.40;99.90;;;;;;5028647;28;20213;-30
2023/07/27 06:01:03;;;;;;;2.67;1.80;;;20.40;99.90;;;;;;5034852;28;20410;-31
2023/07/27 06:03:31;;;;;;;2.00;1.60;;;20.40;99.90;;;;;;5032036;28;20205;-31
2023/07/27 06:05:59;;;;;;;3.05;1.80;;;20.50;99.90;;;;;;5026574;28;20585;-31
2023/07/27 06:08:27;;;;;;;3.05;1.92;;;20.50;99.90;;;;;;5026058;28;20208;-30
2023/07/27 06:11:07;;;;;;;2.42;1.55;;;20.50;99.90;;;;;;5044875;28;20231;-30
2023/07/27 06:13:35;;;;;;;3.22;1.80;;;20.60;99.90;;;;;;5036870;28;20220;-30
2023/07/27 06:16:03;;;;;;;2.95;1.90;;;20.60;99.90;;;;;;5044830;28;20201;-30
2023/07/27 06:18:31;;;;;;;3.70;2.05;;;20.60;99.90;;;;;;5046770;28;20192;-30
2023/07/27 06:21:00;;;;;;;2.22;2.00;;;20.60;99.90;;;;;;5038714;28;20212;-30
2023/07/27 06:23:30;;;;;;;3.50;2.13;;;20.60;99.90;;;;;;5033789;28;20248;-30
2023/07/27 06:25:57;;;;;;;2.25;1.95;;;20.70;99.90;;;;;;5029965;28;20205;-24
2023/07/27 06:28:27;;;;;;;2.22;1.90;;;20.70;99.90;;;;;;5040791;28;20648;-24
2023/07/27 06:30:56;;;;;;;4.63;2.10;;;20.70;99.90;;;;;;5024543;28;20228;-24
2023/07/27 06:33:24;;;;;;;2.85;2.55;;;20.80;99.90;;;;;;5026603;28;20725;-24
2023/07/27 06:35:51;;;;;;;2.63;1.85;;;20.80;99.90;;;;;;5050569;28;20235;-24
2023/07/27 06:38:19;;;;;;;2.55;1.67;;;20.80;99.90;;;;;;5025915;28;20229;-25
2023/07/27 06:40:46;;;;;;;2.72;1.70;;;20.80;99.90;;;;;;5036790;28;20216;-24
2023/07/27 06:43:13;;;;;;;2.35;1.88;;;20.80;99.90;;;;;;5025711;28;20209;-24
2023/07/27 06:45:42;;;;;;;2.00;1.77;;;20.80;99.90;;;;;;5027870;28;20205;-24
2023/07/27 06:48:10;;;;;;;3.10;1.73;;;20.80;99.90;;;;;;5039918;28;20680;-24
2023/07/27 06:50:38;;;;;;;3.00;1.50;;;20.90;99.90;;;;;;5029738;28;20228;-24
2023/07/27 06:53:05;;;;;;;1.85;1.45;;;20.90;99.90;;;;;;5027149;28;20662;-30
2023/07/27 06:55:32;;;;;;;2.35;2.15;;;20.90;99.90;;;;;;5032204;28;20201;-30
2023/07/27 06:58:01;;;;;;;2.08;1.88;;;20.90;99.90;;;;;;5027102;28;20196;-30
2023/07/27 07:00:28;;;;;;;1.55;1.45;;;20.90;99.90;;;;;;5027433;28;20219;-30
2023/07/27 07:02:55;;;;;;;2.08;1.70;;;21.00;99.90;;;;;;5028764;28;20407;-30
2023/07/27 07:05:25;;;;;;;2.03;1.52;;;21.00;99.90;;;;;;5031093;28;20591;-30
2023/07/27 07:07:55;;;;;;;2.58;1.10;;;21.00;99.90;;;;;;5037655;28;20227;-30
2023/07/27 07:10:22;;;;;;;2.03;1.20;;;21.00;99.90;;;;;;5045262;28;20227;-30
2023/07/27 07:12:49;;;;;;;1.15;0.98;;;21.00;99.90;;;;;;5045180;28;20220;-30
2023/07/27 07:15:18;;;;;;;2.08;1.25;;;21.00;99.90;;;;;;5040547;28;20208;-30
2023/07/27 07:17:46;;;;;;;1.77;1.40;;;21.00;99.90;;;;;;5045427;28;20203;-30
2023/07/27 07:20:14;;;;;;;3.63;1.33;;;21.10;99.90;;;;;;5032464;28;20689;-30
2023/07/27 07:22:41;;;;;;;2.28;1.20;;;21.10;99.90;;;;;;5043254;28;20270;-30
2023/07/27 07:25:10;;;;;;;4.43;1.60;;;21.10;99.90;;;;;;5031106;28;20662;-30
2023/07/27 07:27:38;;;;;;;1.27;1.17;;;21.20;99.90;;;;;;5039687;28;20204;-31
2023/07/27 07:30:05;;;;;;;3.95;1.50;;;21.20;99.90;;;;;;5043879;28;20698;-30
2023/07/27 07:32:35;;;;;;;2.38;1.40;;;21.20;99.90;;;;;;5040639;28;20753;-30
2023/07/27 07:35:03;;;;;;;1.80;1.60;;;21.20;99.90;;;;;;5035630;28;20634;-30
2023/07/27 07:37:30;;;;;;;1.98;1.60;;;21.20;99.90;;;;;;5036352;28;20193;-30
2023/07/27 07:39:57;;;;;;;3.42;1.75;;;21.20;99.90;;;;;;5024494;28;20738;-30
2023/07/27 07:42:27;;;;;;;2.15;1.70;;;21.20;99.90;;;;;;5026259;28;20201;-30
2023/07/27 07:44:54;;;;;;;2.13;1.83;;;21.20;99.90;;;;;;5038113;28;20568;-30
2023/07/27 07:47:21;;;;;;;4.68;1.83;;;21.20;99.90;;;;;;5025945;28;20220;-30
2023/07/27 07:49:49;;;;;;;2.00;1.80;;;21.20;99.90;;;;;;5024744;28;20232;-30
2023/07/27 07:52:16;;;;;;;2.17;1.90;;;21.20;99.90;;;;;;5023381;28;20972;-30
2023/07/27 07:54:43;;;;;;;2.03;1.77;;;21.20;99.90;;;;;;5029114;28;20785;-30
2023/07/27 07:57:12;;;;;;;2.92;2.13;;;21.20;99.90;;;;;;5031305;28;20369;-29
2023/07/27 07:59:40;;;;;;;3.40;1.55;;;21.20;99.90;;;;;;5026620;28;20217;-30
2023/07/27 08:02:09;;;;;;;3.28;2.28;;;21.20;99.90;;;;;;5026662;28;20209;-30
2023/07/27 08:04:36;;;;;;;2.55;1.85;;;21.20;99.90;;;;;;5032742;28;20193;-29
2023/07/27 08:07:06;;;;;;;2.00;1.80;;;21.20;99.90;;;;;;5028148;28;20623;-30
2023/07/27 08:09:33;;;;;;;2.83;1.80;;;21.20;99.90;;;;;;5024720;28;20196;-30
2023/07/27 08:12:01;;;;;;;2.88;2.63;;;21.30;99.90;;;;;;5036869;28;20223;-30
2023/07/27 08:14:28;;;;;;;2.25;1.98;;;21.30;99.90;;;;;;5023854;28;20201;-29
2023/07/27 08:16:55;;;;;;;1.70;1.60;;;21.30;99.90;;;;;;5039119;28;20216;-29
2023/07/27 08:19:25;;;;;;;1.75;1.65;;;21.30;99.90;;;;;;5044671;28;20633;-29
2023/07/27 08:21:53;;;;;;;1.40;1.30;;;21.30;99.90;;;;;;5037474;28;20593;-30
2023/07/27 08:24:20;;;;;;;1.20;0.80;;;21.30;99.90;;;;;;5033290;28;20200;-30
2023/07/27 08:26:51;;;;;;;1.08;0.90;;;21.30;99.90;;;;;;5030559;28;20216;-30
2023/07/27 08:29:20;;;;;;;1.15;0.70;;;21.30;99.90;;;;;;5038997;28;20208;-30
2023/07/27 08:31:49;;;;;;;1.33;0.70;;;21.30;99.90;;;;;;5031797;28;20216;-30
2023/07/27 08:34:19;;;;;;;0.50;0.47;;;21.20;99.90;;;;;;5031895;28;20244;-30
2023/07/27 08:36:53;;;;;;;0.63;0.57;;;21.30;99.90;;;;;;5028114;28;20189;-30
2023/07/27 08:39:25;;;;;;;0.40;0.40;;;21.30;99.90;;;;;;5041667;28;20325;-29
2023/07/27 08:41:55;;;;;;;0.52;0.50;;;21.30;99.90;;;;;;5031514;28;20255;-30
2023/07/27 08:44:24;;;;;;;0.63;0.47;;;21.30;99.90;;;;;;5043102;28;20231;-30
2023/07/27 08:46:54;;;;;;;0.45;0.30;;;21.30;99.90;;;;;;5028983;28;20280;-30
2023/07/27 08:49:21;;;;;;;0.73;0.50;;;21.30;99.90;;;;;;5024088;28;20205;-30
2023/07/27 08:51:49;;;;;;;1.60;0.40;;;21.30;99.90;;;;;;5025159;28;20251;-30
2023/07/27 08:54:16;;;;;;;0.63;0.40;;;21.30;99.90;;;;;;5033855;28;20219;-30
2023/07/27 08:56:43;;;;;;;0.55;0.40;;;21.30;99.90;;;;;;5025567;28;20198;-30
2023/07/27 08:59:11;;;;;;;0.80;0.30;;;21.30;99.90;;;;;;5028123;28;20659;-30
2023/07/27 09:01:41;;;;;;;1.55;0.30;;;21.40;99.90;;;;;;5034264;28;20204;-30
2023/07/27 09:04:08;;;;;;;0.47;0.30;;;21.40;99.90;;;;;;5044231;28;20716;-30
2023/07/27 09:06:37;;;;;;;0.77;0.30;;;21.40;99.90;;;;;;5027727;28;20204;-30
2023/07/27 09:09:31;;;;;;;0.25;0.25;;;21.50;99.90;;;;;;5027660;28;21010;-30
2023/07/27 09:11:58;;;;;;;0.50;0.20;;;21.50;99.90;;;;;;5026758;28;20656;-30
2023/07/27 09:14:33;;;;;;;0.20;0.20;;;21.50;99.90;;;;;;5037320;28;20197;-30
2023/07/27 09:17:03;;;;;;;0.30;0.30;;;21.60;99.90;;;;;;5054134;28;20204;-30
2023/07/27 09:19:36;;;;;;;3.72;0.35;;;21.60;99.90;;;;;;5028999;28;20705;-30
2023/07/27 09:22:07;;;;;;;0.20;0.20;;;21.60;99.90;;;;;;5033712;28;20778;-30
2023/07/27 09:24:35;;;;;;;0.20;0.20;;;21.70;99.90;;;;;;5028226;28;20286;-30
2023/07/27 09:27:08;;;;;;;0.13;0.10;;;21.70;99.90;;;;;;5029009;28;20230;-30
2023/07/27 09:29:39;;;;;;;0.20;0.10;;;21.80;99.90;;;;;;5037263;28;20207;-30
2023/07/27 09:32:11;;;;;;;0.28;0.28;;;21.80;99.90;;;;;;5028006;28;20238;-30
2023/07/27 09:34:38;;;;;;;1.20;0.43;;;21.80;99.90;;;;;;5042850;28;20197;-30
2023/07/27 09:37:08;;;;;;;1.48;0.47;;;21.90;99.90;;;;;;5036339;28;20216;-30
2023/07/27 09:39:43;;;;;;;0.57;0.30;;;21.90;99.90;;;;;;5028525;28;20229;-30
2023/07/27 09:42:13;;;;;;;0.90;0.40;;;21.90;99.90;;;;;;5028458;28;20719;-30
2023/07/27 09:44:55;;;;;;;0.20;0.20;;;21.90;99.90;;;;;;5041719;28;20439;-30
2023/07/27 09:47:29;;;;;;;0.30;0.30;;;21.90;99.90;;;;;;5038044;28;20233;-30
2023/07/27 09:50:03;;;;;;;0.25;0.25;;;22.00;99.90;;;;;;5038661;28;20567;-30
2023/07/27 09:52:33;;;;;;;0.75;0.47;;;22.00;99.90;;;;;;5033690;28;20192;-30
2023/07/27 09:55:03;;;;;;;0.63;0.30;;;22.00;99.90;;;;;;5039171;28;20232;-30
2023/07/27 09:57:30;;;;;;;0.82;0.40;;;22.00;99.90;;;;;;5029081;28;21746;-30
2023/07/27 10:00:04;;;;;;;1.92;0.50;;;22.00;99.90;;;;;;5039079;28;20239;-30
2023/07/27 10:02:33;;;;;;;0.73;0.50;;;22.00;99.90;;;;;;5047981;28;20204;-30
2023/07/27 10:05:03;;;;;;;1.50;0.30;;;22.00;99.90;;;;;;5027299;28;20288;-30
2023/07/27 10:07:30;;;;;;;0.52;0.40;;;22.00;99.90;;;;;;5054740;28;20267;-30
2023/07/27 10:10:39;;;;;;;1.67;0.38;;;21.90;99.90;;;;;;5029915;28;20252;-30
2023/07/27 10:13:11;;;;;;;0.75;0.40;;;21.90;99.90;;;;;;5036629;28;20209;-30
2023/07/27 10:15:45;;;;;;;1.02;0.40;;;21.90;99.90;;;;;;5040641;28;20201;-30
2023/07/27 10:18:15;;;;;;;0.43;0.43;;;21.90;99.90;;;;;;5035845;28;20261;-30
2023/07/27 10:20:42;;;;;;;0.32;0.32;;;21.90;99.90;;;;;;5027864;28;20205;-30
2023/07/27 10:23:12;;;;;;;1.00;0.57;;;21.90;99.90;;;;;;5042486;28;20698;-30
2023/07/27 10:25:54;;;;;;;0.80;0.45;;;21.90;99.90;;;;;;5035510;28;20777;-30
2023/07/27 10:28:43;;;;;;;0.50;0.45;;;21.90;99.90;;;;;;5034153;28;20201;-30
2023/07/27 10:31:13;;;;;;;1.85;0.50;;;21.90;99.90;;;;;;5043168;28;20216;-30
2023/07/27 10:34:07;;;;;;;0.50;0.50;;;21.90;99.90;;;;;;5044375;28;20214;-30
2023/07/27 10:36:52;;;;;;;0.52;0.50;;;21.90;99.90;;;;;;5028098;28;20200;-30
2023/07/27 10:39:31;;;;;;;2.42;0.50;;;22.00;99.90;;;;;;5039399;28;20282;-30
2023/07/27 10:42:04;;;;;;;0.57;0.57;;;21.90;99.90;;;;;;5035545;28;20203;-30
2023/07/27 10:44:53;;;;;;;0.70;0.70;;;21.90;99.90;;;;;;5035754;28;20547;-30
2023/07/27 10:47:25;;;;;;;1.15;0.60;;;22.00;99.90;;;;;;5026937;28;20602;-30
2023/07/27 10:49:57;;;;;;;2.00;0.63;;;22.00;99.90;;;;;;5026935;28;20713;-30
2023/07/27 10:52:30;;;;;;;0.85;0.85;;;22.00;99.90;;;;;;5036112;28;20690;-30
2023/07/27 10:54:59;;;;;;;0.73;0.70;;;22.00;99.90;;;;;;5034501;28;20218;-30
2023/07/27 10:57:29;;;;;;;0.82;0.82;;;22.00;99.90;;;;;;5042837;28;20541;-30
2023/07/27 10:59:59;;;;;;;1.15;1.00;;;22.00;99.90;;;;;;5041284;28;20722;-30
2023/07/27 11:02:31;;;;;;;1.20;0.95;;;22.00;99.90;;;;;;5038538;28;20286;-30
2023/07/27 11:05:05;;;;;;;1.05;0.95;;;22.00;99.90;;;;;;5037744;28;20224;-30
2023/07/27 11:07:39;;;;;;;2.53;1.05;;;22.00;99.90;;;;;;5035757;28;20202;-30
2023/07/27 11:10:10;;;;;;;1.88;1.00;;;22.00;99.90;;;;;;5032443;28;20201;-30
2023/07/27 11:12:56;;;;;;;1.60;1.00;;;22.00;99.90;;;;;;5035776;28;20235;-30
2023/07/27 11:15:25;;;;;;;1.40;0.93;;;22.00;99.90;;;;;;5027461;28;20495;-30
2023/07/27 11:17:59;;;;;;;1.67;1.02;;;22.00;99.90;;;;;;5025821;28;20212;-30
2023/07/27 11:20:28;;;;;;;1.50;1.00;;;22.00;99.90;;;;;;5025650;28;20219;-30
2023/07/27 11:22:59;;;;;;;1.10;1.05;;;22.00;99.90;;;;;;5041367;28;20852;-30
2023/07/27 11:25:32;;;;;;;0.88;0.88;;;22.00;99.90;;;;;;5045518;28;20192;-30
2023/07/27 11:28:00;;;;;;;1.48;0.90;;;22.10;99.90;;;;;;5041892;28;20204;-30
2023/07/27 11:30:35;;;;;;;0.80;0.80;;;22.00;99.90;;;;;;5045899;28;20779;-30
2023/07/27 11:33:04;;;;;;;2.00;0.80;;;22.00;99.90;;;;;;5045350;28;20196;-30
2023/07/27 11:35:34;;;;;;;0.90;0.90;;;22.00;99.90;;;;;;5045123;28;20196;-30
2023/07/27 11:38:01;;;;;;;1.63;0.80;;;22.00;99.90;;;;;;5042577;28;20761;-30
2023/07/27 11:40:30;;;;;;;1.23;0.80;;;22.00;99.90;;;;;;5026155;28;20205;-30
2023/07/27 11:43:03;;;;;;;1.08;0.90;;;22.00;99.90;;;;;;5041955;28;20201;-30
2023/07/27 11:45:34;;;;;;;1.05;0.63;;;22.00;99.90;;;;;;5045991;28;20224;-30
2023/07/27 11:48:05;;;;;;;0.90;0.60;;;22.00;99.90;;;;;;5044191;28;20316;-30
2023/07/27 11:50:38;;;;;;;3.08;0.73;;;22.00;99.90;;;;;;5023240;28;20217;-30
2023/07/27 11:53:12;;;;;;;0.80;0.80;;;22.00;99.90;;;;;;5023910;28;20205;-30
2023/07/27 11:55:49;;;;;;;0.60;0.60;;;22.00;99.90;;;;;;5026194;28;20343;-30
2023/07/27 11:58:19;;;;;;;0.75;0.73;;;22.00;99.90;;;;;;5030679;28;20782;-30
2023/07/27 12:00:50;;;;;;;0.70;0.70;;;22.00;99.90;;;;;;5043417;28;20250;-30
2023/07/27 12:03:19;;;;;;;0.50;0.50;;;22.00;99.90;;;;;;5046872;28;20819;-30
2023/07/27 12:05:53;;;;;;;1.27;0.90;;;22.00;99.90;;;;;;5044754;28;20236;-30
2023/07/27 12:08:21;;;;;;;0.73;0.60;;;22.00;99.90;;;;;;5042396;28;20223;-30
2023/07/27 12:10:59;;;;;;;0.85;0.65;;;22.00;99.90;;;;;;5026220;28;20591;-30
2023/07/27 12:13:36;;;;;;;0.70;0.65;;;22.00;99.90;;;;;;5028973;28;20254;-30
2023/07/27 12:16:08;;;;;;;1.88;0.63;;;22.00;99.90;;;;;;5045950;28;20204;-30
2023/07/27 12:18:40;;;;;;;0.70;0.70;;;22.00;99.90;;;;;;5045556;28;20212;-30
2023/07/27 12:21:13;;;;;;;3.80;0.60;;;22.00;99.90;;;;;;5039479;28;20205;-30
2023/07/27 12:23:43;;;;;;;0.50;0.50;;;22.10;99.90;;;;;;5026320;28;20197;-30
2023/07/27 12:26:15;;;;;;;0.63;0.63;;;22.10;99.90;;;;;;5026136;28;20636;-30
2023/07/27 12:28:45;;;;;;;0.50;0.50;;;22.10;99.90;;;;;;5040904;28;20239;-30
2023/07/27 12:31:12;;;;;;;0.50;0.50;;;22.10;99.90;;;;;;5039493;28;20215;-30
2023/07/27 12:33:59;;;;;;;0.52;0.52;;;22.10;99.90;;;;;;5042726;28;20674;-30
2023/07/27 12:36:29;;;;;;;0.40;0.40;;;22.10;99.90;;;;;;5023729;28;20251;-30
2023/07/27 12:38:56;;;;;;;0.90;0.50;;;22.10;99.90;;;;;;5036948;28;20600;-30
2023/07/27 12:41:23;;;;;;;0.43;0.43;;;22.00;99.90;;;;;;5044178;28;20711;-30
2023/07/27 12:43:50;;;;;;;0.70;0.30;;;22.00;99.90;;;;;;5029506;28;20208;-30
2023/07/27 12:46:18;;;;;;;0.55;0.50;;;22.00;99.90;;;;;;5029595;28;20193;-30
2023/07/27 12:48:47;;;;;;;0.50;0.50;;;22.00;99.90;;;;;;5029704;28;20203;-30
2023/07/27 12:51:15;;;;;;;0.93;0.70;;;21.90;99.90;;;;;;5028358;28;20221;-30
2023/07/27 12:53:42;;;;;;;0.57;0.57;;;21.90;99.90;;;;;;5032088;28;20668;-30
2023/07/27 12:56:11;;;;;;;1.23;0.60;;;21.90;99.90;;;;;;5029358;28;20205;-30
2023/07/27 12:58:38;;;;;;;1.63;0.75;;;21.80;99.90;;;;;;5030068;28;20235;-30
2023/07/27 13:01:05;;;;;;;1.20;0.70;;;21.80;99.90;;;;;;5030305;28;20560;-30
2023/07/27 13:03:34;;;;;;;0.60;0.60;;;21.80;99.90;;;;;;5046629;28;20645;-30
2023/07/27 13:06:04;;;;;;;0.63;0.60;;;21.80;99.90;;;;;;5039095;28;20208;-30